Time;durP1;ratioP1;P1;durP2;ratioP2;P2;SDS_P1;SDS_P2;PMS_P1;PMS_P2;Temp;Humidity;BMP_temperature;BMP_pressure;BME280_temperature;BME280_humidity;BME280_pressure;Samples;Min_cycle;Max_cycle;Signal;HPM_P1;HPM_P2
2022/12/13 03:02:17;;;;;;;24.10;20.37;;;-7.70;99.90;;;;;;5202745;23;20502;-78
2022/12/13 03:07:49;;;;;;;23.07;20.57;;;-7.80;99.90;;;;;;4915321;29;20439;-79
2022/12/13 03:10:21;;;;;;;29.77;22.40;;;-7.70;99.90;;;;;;4926989;29;20861;-79
2022/12/13 03:15:43;;;;;;;25.70;21.50;;;-7.80;99.90;;;;;;4916447;23;20500;-77
2022/12/13 03:18:15;;;;;;;26.73;21.57;;;-7.80;99.90;;;;;;4896584;29;20437;-77
2022/12/13 03:20:47;;;;;;;26.17;21.60;;;-7.90;99.90;;;;;;4896639;29;20448;-78
2022/12/13 03:23:14;;;;;;;30.10;23.80;;;-7.80;99.90;;;;;;4895136;29;20525;-78
2022/12/13 03:25:41;;;;;;;35.13;23.17;;;-7.80;99.90;;;;;;4877533;29;20969;-78
2022/12/13 03:28:08;;;;;;;30.03;23.20;;;-7.90;99.90;;;;;;4874185;29;20466;-77
2022/12/13 03:30:35;;;;;;;26.03;22.60;;;-7.90;99.90;;;;;;4870002;29;20985;-77
2022/12/13 03:33:02;;;;;;;25.17;21.43;;;-7.90;99.90;;;;;;4869002;29;20485;-77
2022/12/13 03:35:31;;;;;;;25.53;21.37;;;-8.00;99.90;;;;;;4868939;29;20500;-78
2022/12/13 03:37:58;;;;;;;26.93;21.30;;;-8.00;99.90;;;;;;4873993;29;20449;-78
2022/12/13 03:40:25;;;;;;;26.27;21.17;;;-7.90;99.90;;;;;;4870061;29;20516;-77
2022/12/13 03:42:52;;;;;;;26.93;22.03;;;-7.90;99.90;;;;;;4877502;29;20988;-77
2022/12/13 03:45:19;;;;;;;28.37;22.33;;;-7.90;99.90;;;;;;4874080;29;20466;-77
2022/12/13 03:47:46;;;;;;;23.97;21.33;;;-7.90;99.90;;;;;;4873313;29;20466;-77
2022/12/13 03:50:13;;;;;;;26.33;21.80;;;-8.00;99.90;;;;;;4866329;29;20462;-82
2022/12/13 03:52:41;;;;;;;27.23;21.57;;;-8.00;99.90;;;;;;4875057;29;20485;-80
2022/12/13 03:55:09;;;;;;;27.57;23.97;;;-8.10;99.90;;;;;;4877767;29;20517;-80
2022/12/13 03:57:36;;;;;;;26.70;21.77;;;-8.10;99.90;;;;;;4868458;29;20840;-81
2022/12/13 04:00:03;;;;;;;25.73;22.90;;;-8.10;99.90;;;;;;4874758;29;20506;-80
2022/12/13 04:02:39;;;;;;;26.00;22.30;;;-8.00;99.90;;;;;;4880958;29;20935;-81
2022/12/13 04:05:06;;;;;;;25.33;21.57;;;-8.10;99.90;;;;;;4879313;29;20839;-81
2022/12/13 04:07:33;;;;;;;24.57;21.83;;;-8.10;99.90;;;;;;4878844;29;20461;-81
2022/12/13 04:10:01;;;;;;;30.27;23.20;;;-8.10;99.90;;;;;;4877598;29;20457;-81
2022/12/13 04:15:27;;;;;;;27.77;22.30;;;-8.20;99.90;;;;;;4863349;29;20478;-83
2022/12/13 04:17:54;;;;;;;30.73;23.87;;;-8.10;99.90;;;;;;4865036;29;20454;-81
2022/12/13 04:20:21;;;;;;;29.43;25.43;;;-8.10;99.90;;;;;;4861191;29;20489;-81
2022/12/13 04:22:48;;;;;;;33.00;23.77;;;-8.10;99.90;;;;;;4875785;29;20459;-81
2022/12/13 04:25:18;;;;;;;27.90;22.57;;;-8.10;99.90;;;;;;4878364;29;20477;-81
2022/12/13 04:27:45;;;;;;;31.60;23.13;;;-8.10;99.90;;;;;;4878075;29;20466;-83
2022/12/13 04:30:13;;;;;;;25.93;22.53;;;-8.10;99.90;;;;;;4879196;29;20446;-80
2022/12/13 04:32:39;;;;;;;27.67;22.50;;;-8.10;99.90;;;;;;4881568;29;20458;-80
2022/12/13 04:35:07;;;;;;;28.77;23.13;;;-8.10;99.90;;;;;;4881804;29;20465;-81
2022/12/13 04:37:34;;;;;;;31.87;25.10;;;-8.10;99.90;;;;;;4876213;29;20450;-81
2022/12/13 04:40:01;;;;;;;31.47;24.63;;;-8.10;99.90;;;;;;4875917;29;20473;-80
2022/12/13 04:42:29;;;;;;;26.43;22.33;;;-8.10;99.90;;;;;;4879084;29;20450;-81
2022/12/13 04:44:56;;;;;;;32.27;23.50;;;-8.10;99.90;;;;;;4877083;29;20458;-84
2022/12/13 04:47:22;;;;;;;28.13;23.20;;;-8.20;99.90;;;;;;4878125;29;20464;-81
2022/12/13 04:49:49;;;;;;;29.77;23.60;;;-8.30;99.90;;;;;;4880184;29;21040;-81
2022/12/13 04:52:16;;;;;;;27.07;22.93;;;-8.30;99.90;;;;;;4878684;29;20995;-80
2022/12/13 04:54:43;;;;;;;29.07;24.57;;;-8.30;99.90;;;;;;4878796;29;20501;-80
2022/12/13 04:57:11;;;;;;;27.57;22.50;;;-8.40;99.90;;;;;;4880255;29;20482;-80
2022/12/13 04:59:40;;;;;;;31.33;25.50;;;-8.30;99.90;;;;;;4873681;29;20454;-80
2022/12/13 05:02:07;;;;;;;29.97;24.47;;;-8.30;99.90;;;;;;4876560;29;20482;-80
2022/12/13 05:04:34;;;;;;;32.20;24.97;;;-8.40;99.90;;;;;;4876126;29;20466;-81
2022/12/13 05:07:02;;;;;;;36.63;25.00;;;-8.40;99.90;;;;;;4875569;29;20957;-79
2022/12/13 05:09:29;;;;;;;29.43;23.93;;;-8.40;99.90;;;;;;4873445;29;21003;-79
2022/12/13 05:11:56;;;;;;;33.13;24.70;;;-8.40;99.90;;;;;;4877360;29;20462;-80
2022/12/13 05:14:23;;;;;;;27.30;23.43;;;-8.30;99.90;;;;;;4879388;29;21002;-82
2022/12/13 05:16:52;;;;;;;28.80;23.90;;;-8.40;99.90;;;;;;4877827;29;20466;-81
2022/12/13 05:19:19;;;;;;;32.73;23.37;;;-8.40;99.90;;;;;;4873751;29;20468;-82
2022/12/13 05:21:46;;;;;;;29.60;22.80;;;-8.50;99.90;;;;;;4880723;29;20454;-81
2022/12/13 05:24:12;;;;;;;31.53;24.40;;;-8.50;99.90;;;;;;4877553;29;20486;-81
2022/12/13 05:26:39;;;;;;;32.23;23.13;;;-8.50;99.90;;;;;;4881049;29;20454;-79
2022/12/13 05:29:06;;;;;;;28.40;23.33;;;-8.50;99.90;;;;;;4881721;29;20453;-84
2022/12/13 05:31:33;;;;;;;26.70;23.73;;;-8.50;99.90;;;;;;4871737;29;20509;-81
2022/12/13 05:34:01;;;;;;;30.90;24.20;;;-8.50;99.90;;;;;;4871060;29;20493;-78
2022/12/13 05:36:28;;;;;;;30.27;24.47;;;-8.50;99.90;;;;;;4875531;29;20446;-78
2022/12/13 05:38:56;;;;;;;32.10;24.80;;;-8.50;99.90;;;;;;4875267;29;20458;-78
2022/12/13 05:41:24;;;;;;;31.47;25.57;;;-8.50;99.90;;;;;;4871678;29;20434;-77
2022/12/13 05:43:51;;;;;;;29.03;25.00;;;-8.40;99.90;;;;;;4871862;29;20906;-78
2022/12/13 05:46:18;;;;;;;30.70;24.33;;;-8.50;99.90;;;;;;4873517;29;20446;-79
2022/12/13 05:48:46;;;;;;;31.83;25.13;;;-8.40;99.90;;;;;;4874885;29;20455;-77
2022/12/13 05:51:14;;;;;;;27.57;24.17;;;-8.30;99.90;;;;;;4870249;29;20462;-77
2022/12/13 05:53:42;;;;;;;30.13;24.23;;;-8.40;99.90;;;;;;4873465;29;20849;-78
2022/12/13 05:56:09;;;;;;;30.63;25.13;;;-8.40;99.90;;;;;;4875400;29;20966;-78
2022/12/13 05:58:37;;;;;;;27.63;23.50;;;-8.50;99.90;;;;;;4872880;29;20456;-77
2022/12/13 06:01:07;;;;;;;28.93;23.97;;;-8.50;99.90;;;;;;4876075;29;20541;-78
2022/12/13 06:03:34;;;;;;;28.30;23.40;;;-8.60;99.90;;;;;;4877893;29;20439;-77
2022/12/13 06:06:02;;;;;;;29.77;23.03;;;-8.60;99.90;;;;;;4874718;29;20446;-77
2022/12/13 06:08:31;;;;;;;29.27;23.63;;;-8.50;99.90;;;;;;4871452;29;20973;-77
2022/12/13 06:10:59;;;;;;;27.20;22.87;;;-8.50;99.90;;;;;;4870529;29;20518;-77
2022/12/13 06:13:26;;;;;;;29.90;22.83;;;-8.50;99.90;;;;;;4877737;29;20481;-77
2022/12/13 06:15:53;;;;;;;26.60;22.60;;;-8.50;99.90;;;;;;4877067;29;20481;-77
2022/12/13 06:18:21;;;;;;;30.17;22.37;;;-8.50;99.90;;;;;;4872484;29;20493;-79
2022/12/13 06:20:56;;;;;;;28.23;22.50;;;-8.60;99.90;;;;;;4871927;29;20442;-78
2022/12/13 06:23:24;;;;;;;29.83;22.53;;;-8.60;99.90;;;;;;4869824;29;20493;-78
2022/12/13 06:25:52;;;;;;;30.77;24.73;;;-8.50;99.90;;;;;;4875109;29;20474;-77
2022/12/13 06:28:19;;;;;;;30.63;23.60;;;-8.40;99.90;;;;;;4871344;29;20442;-78
2022/12/13 06:30:46;;;;;;;26.93;22.07;;;-8.40;99.90;;;;;;4873562;29;20442;-78
2022/12/13 06:33:13;;;;;;;30.10;23.70;;;-8.40;99.90;;;;;;4874169;29;20469;-77
2022/12/13 06:35:39;;;;;;;27.77;22.60;;;-8.40;99.90;;;;;;4872960;29;21016;-78
2022/12/13 06:38:06;;;;;;;29.60;23.20;;;-8.50;99.90;;;;;;4870406;29;20454;-78
2022/12/13 06:40:33;;;;;;;29.17;23.30;;;-8.40;99.90;;;;;;4873710;29;20451;-77
2022/12/13 06:43:01;;;;;;;27.77;22.77;;;-8.50;99.90;;;;;;4874791;29;20466;-77
2022/12/13 06:45:28;;;;;;;31.23;23.03;;;-8.50;99.90;;;;;;4869984;29;20537;-76
2022/12/13 06:47:56;;;;;;;30.37;23.73;;;-8.50;99.90;;;;;;4872073;29;20450;-78
2022/12/13 06:50:23;;;;;;;27.20;22.00;;;-8.40;99.90;;;;;;4870955;29;20502;-78
2022/12/13 06:52:50;;;;;;;32.17;24.00;;;-8.50;99.90;;;;;;4873620;29;20481;-79
2022/12/13 06:55:17;;;;;;;30.57;23.10;;;-8.40;99.90;;;;;;4875946;29;20487;-77
2022/12/13 06:57:44;;;;;;;28.03;23.27;;;-8.40;99.90;;;;;;4879330;29;20443;-79
2022/12/13 07:00:14;;;;;;;29.33;22.67;;;-8.20;99.90;;;;;;4877845;29;20489;-85
2022/12/13 07:02:41;;;;;;;29.33;23.17;;;-8.20;99.90;;;;;;4874415;29;20466;-80
2022/12/13 07:05:09;;;;;;;30.90;23.47;;;-8.30;99.90;;;;;;4874240;29;20474;-80
2022/12/13 07:07:36;;;;;;;30.50;23.17;;;-8.30;99.90;;;;;;4880098;29;20507;-81
2022/12/13 07:10:03;;;;;;;29.57;22.70;;;-8.30;99.90;;;;;;4877082;29;20455;-81
2022/12/13 07:12:31;;;;;;;24.70;21.03;;;-8.40;99.90;;;;;;4877111;29;20442;-78
2022/12/13 07:14:58;;;;;;;36.03;21.87;;;-8.40;99.90;;;;;;4877988;29;20482;-80
2022/12/13 07:17:26;;;;;;;27.97;21.97;;;-8.30;99.90;;;;;;4875507;29;20515;-79
2022/12/13 07:19:53;;;;;;;26.50;21.43;;;-8.20;99.90;;;;;;4871091;29;20459;-80
2022/12/13 07:22:20;;;;;;;31.00;23.03;;;-8.10;99.90;;;;;;4890556;29;20809;-79
2022/12/13 07:24:47;;;;;;;34.17;22.73;;;-8.10;99.90;;;;;;4876240;29;20485;-79
2022/12/13 07:27:13;;;;;;;29.07;23.60;;;-8.10;99.90;;;;;;4869634;29;20465;-78
2022/12/13 07:29:40;;;;;;;28.77;22.87;;;-8.10;99.90;;;;;;4871560;29;20458;-79
2022/12/13 07:32:07;;;;;;;35.97;23.87;;;-8.10;99.90;;;;;;4877769;29;20934;-79
2022/12/13 07:34:35;;;;;;;33.90;24.03;;;-8.10;99.90;;;;;;4871736;29;20477;-79
2022/12/13 07:37:02;;;;;;;28.77;22.63;;;-8.10;99.90;;;;;;4880319;29;20986;-78
2022/12/13 07:39:31;;;;;;;30.40;22.90;;;-8.20;99.90;;;;;;4876969;29;20844;-78
2022/12/13 07:41:57;;;;;;;31.57;24.07;;;-8.20;99.90;;;;;;4878514;29;20450;-78
2022/12/13 07:44:24;;;;;;;34.43;23.87;;;-8.10;99.90;;;;;;4880270;29;20477;-79
2022/12/13 07:46:51;;;;;;;27.33;23.10;;;-8.00;99.90;;;;;;4877574;29;20449;-79
2022/12/13 07:49:18;;;;;;;28.47;24.10;;;-7.90;99.90;;;;;;4881506;29;20457;-79
2022/12/13 07:51:46;;;;;;;31.67;23.17;;;-7.80;99.90;;;;;;4880359;29;20461;-79
2022/12/13 07:54:13;;;;;;;32.00;23.53;;;-7.80;99.90;;;;;;4876721;29;20513;-79
2022/12/13 07:56:40;;;;;;;28.30;21.90;;;-7.70;99.90;;;;;;4879407;29;20454;-79
2022/12/13 07:59:07;;;;;;;28.40;22.60;;;-7.60;99.90;;;;;;4873999;29;20458;-78
2022/12/13 08:01:34;;;;;;;28.10;22.73;;;-7.50;99.90;;;;;;4873363;29;20458;-78
2022/12/13 08:04:01;;;;;;;26.70;22.57;;;-7.50;99.90;;;;;;4876211;29;20459;-78
2022/12/13 08:06:30;;;;;;;30.23;22.73;;;-7.40;99.90;;;;;;4872770;29;20464;-78
2022/12/13 08:08:58;;;;;;;27.73;22.27;;;-7.30;99.90;;;;;;4880908;29;20438;-78
2022/12/13 08:11:25;;;;;;;29.50;23.50;;;-7.20;99.90;;;;;;4875843;29;20454;-78
2022/12/13 08:13:53;;;;;;;31.83;23.60;;;-7.10;99.90;;;;;;4875003;29;20454;-78
2022/12/13 08:16:20;;;;;;;32.77;23.77;;;-7.00;99.90;;;;;;4874398;29;20439;-78
2022/12/13 08:18:47;;;;;;;29.87;23.57;;;-6.90;99.90;;;;;;4879752;29;20819;-79
2022/12/13 08:21:14;;;;;;;29.07;23.53;;;-6.80;99.90;;;;;;4876947;29;20461;-78
2022/12/13 08:23:42;;;;;;;28.07;22.40;;;-6.80;99.90;;;;;;4879695;29;20494;-78
2022/12/13 08:26:10;;;;;;;26.03;23.33;;;-6.70;99.90;;;;;;4876164;29;20469;-78
2022/12/13 08:28:37;;;;;;;26.53;22.83;;;-6.60;99.90;;;;;;4870065;29;20435;-79
2022/12/13 08:31:06;;;;;;;29.43;23.30;;;-6.50;99.90;;;;;;4873487;29;20823;-79
2022/12/13 08:33:33;;;;;;;31.00;24.70;;;-6.30;99.90;;;;;;4878530;29;20446;-78
2022/12/13 08:36:08;;;;;;;29.90;23.57;;;-6.10;99.90;;;;;;4879621;29;20480;-78
2022/12/13 08:38:35;;;;;;;31.67;24.50;;;-6.00;99.90;;;;;;4876725;29;20916;-79
2022/12/13 08:41:02;;;;;;;31.53;24.13;;;-5.90;99.90;;;;;;4878153;29;20480;-79
2022/12/13 08:43:30;;;;;;;29.73;22.80;;;-5.90;99.90;;;;;;4870209;29;20449;-78
2022/12/13 08:45:57;;;;;;;27.17;22.53;;;-5.80;99.90;;;;;;4878968;29;20959;-78
2022/12/13 08:48:24;;;;;;;28.17;22.33;;;-5.70;99.90;;;;;;4877673;29;20462;-78
2022/12/13 08:50:51;;;;;;;30.70;24.23;;;-5.60;99.90;;;;;;4879276;29;20453;-79
2022/12/13 08:53:18;;;;;;;28.83;23.57;;;-5.60;99.90;;;;;;4877368;29;20483;-78
2022/12/13 08:55:44;;;;;;;27.67;23.63;;;-5.70;99.90;;;;;;4877400;29;20498;-78
2022/12/13 08:58:13;;;;;;;25.27;22.53;;;-5.50;99.90;;;;;;4876663;29;20462;-79
2022/12/13 09:00:41;;;;;;;29.33;24.60;;;-5.40;99.90;;;;;;4874595;29;21034;-80
2022/12/13 09:03:08;;;;;;;26.67;23.33;;;-5.40;99.90;;;;;;4878810;29;20454;-79
2022/12/13 09:05:35;;;;;;;26.17;23.27;;;-5.50;99.90;;;;;;4874743;29;20455;-79
2022/12/13 09:08:03;;;;;;;26.63;23.13;;;-5.50;99.90;;;;;;4879206;29;20458;-80
2022/12/13 09:10:30;;;;;;;31.67;23.33;;;-5.30;99.90;;;;;;4874200;29;20536;-79
2022/12/13 09:12:58;;;;;;;28.37;23.83;;;-5.20;99.90;;;;;;4878894;29;20450;-77
2022/12/13 09:15:25;;;;;;;29.73;22.70;;;-5.20;99.90;;;;;;4870077;29;20856;-79
2022/12/13 09:17:54;;;;;;;29.57;24.33;;;-5.10;99.90;;;;;;4879710;29;20471;-79
2022/12/13 09:20:21;;;;;;;30.07;24.13;;;-5.00;99.90;;;;;;4871843;29;20448;-78
2022/12/13 09:22:48;;;;;;;25.60;22.50;;;-4.90;99.90;;;;;;4877677;29;20810;-78
2022/12/13 09:25:15;;;;;;;27.40;22.23;;;-4.90;99.90;;;;;;4878573;29;20529;-80
2022/12/13 09:27:43;;;;;;;26.13;22.80;;;-4.90;99.90;;;;;;4873626;29;20448;-79
2022/12/13 09:30:12;;;;;;;26.07;22.30;;;-4.90;99.90;;;;;;4876859;29;20463;-78
2022/12/13 09:32:40;;;;;;;25.07;22.17;;;-4.70;99.90;;;;;;4874795;29;20528;-81
2022/12/13 09:35:09;;;;;;;25.00;21.73;;;-4.70;99.90;;;;;;4884825;29;21073;-80
2022/12/13 09:37:36;;;;;;;24.10;21.50;;;-4.60;99.90;;;;;;4874337;29;20454;-81
2022/12/13 09:40:05;;;;;;;24.57;21.60;;;-4.60;99.90;;;;;;4881237;29;20461;-79
2022/12/13 09:42:34;;;;;;;24.57;21.93;;;-4.50;99.90;;;;;;4877943;29;20534;-82
2022/12/13 09:45:04;;;;;;;25.83;22.07;;;-4.50;99.90;;;;;;4878615;29;20904;-81
2022/12/13 09:47:35;;;;;;;25.73;21.83;;;-4.50;99.90;;;;;;4873925;29;20464;-81
2022/12/13 09:50:08;;;;;;;25.63;21.53;;;-4.40;99.90;;;;;;4875311;29;20445;-81
2022/12/13 09:52:39;;;;;;;25.50;22.57;;;-4.40;99.90;;;;;;4874416;29;20451;-80
2022/12/13 09:55:21;;;;;;;26.47;22.57;;;-4.40;99.90;;;;;;4874709;29;20856;-79
2022/12/13 09:57:49;;;;;;;24.50;21.83;;;-4.30;99.90;;;;;;4885735;29;20482;-78
2022/12/13 10:00:20;;;;;;;28.27;23.90;;;-4.20;99.90;;;;;;4875654;29;20458;-78
2022/12/13 10:02:50;;;;;;;27.07;22.67;;;-4.10;99.90;;;;;;4874211;29;20462;-79
2022/12/13 10:05:26;;;;;;;29.80;23.47;;;-4.10;99.90;;;;;;4877268;29;20474;-78
2022/12/13 10:07:57;;;;;;;25.13;22.43;;;-4.00;99.90;;;;;;4875815;29;20445;-79
2022/12/13 10:10:25;;;;;;;25.30;22.63;;;-4.00;99.90;;;;;;4875942;29;20453;-80
2022/12/13 10:12:58;;;;;;;26.93;24.13;;;-3.90;99.90;;;;;;4877110;29;20469;-84
2022/12/13 10:15:27;;;;;;;25.07;22.53;;;-3.80;99.90;;;;;;4876309;29;20602;-80
2022/12/13 10:17:55;;;;;;;28.97;22.73;;;-3.70;99.90;;;;;;4874203;29;20477;-78
2022/12/13 10:20:24;;;;;;;28.23;24.13;;;-3.70;99.90;;;;;;4884273;29;20450;-80
2022/12/13 10:22:51;;;;;;;27.27;22.37;;;-3.60;99.90;;;;;;4878002;29;20459;-83
2022/12/13 10:25:47;;;;;;;25.73;22.37;;;-3.60;99.90;;;;;;4877166;29;20505;-82
2022/12/13 10:28:17;;;;;;;27.23;22.90;;;-3.40;99.90;;;;;;4874104;29;20454;-82
2022/12/13 10:30:45;;;;;;;28.43;22.73;;;-3.40;99.90;;;;;;4876514;29;20477;-81
2022/12/13 10:33:24;;;;;;;26.50;23.37;;;-3.30;99.90;;;;;;4872039;29;20468;-82
2022/12/13 10:36:30;;;;;;;26.77;23.87;;;-3.20;99.90;;;;;;4873573;29;20485;-82
2022/12/13 10:38:57;;;;;;;27.23;22.27;;;-3.10;99.90;;;;;;4837171;29;20521;-82
2022/12/13 10:41:32;;;;;;;30.17;23.53;;;-3.00;99.90;;;;;;4877522;29;20529;-81
2022/12/13 10:44:18;;;;;;;30.70;23.37;;;-2.90;99.90;;;;;;4874890;29;20471;-81
2022/12/13 10:46:50;;;;;;;30.43;23.37;;;-2.90;99.90;;;;;;4872777;29;20454;-82
2022/12/13 10:49:19;;;;;;;28.93;23.73;;;-2.80;99.90;;;;;;4874657;29;20446;-82
2022/12/13 10:51:47;;;;;;;34.93;26.30;;;-2.80;99.90;;;;;;4877289;29;20849;-82
2022/12/13 10:54:19;;;;;;;30.87;23.90;;;-2.70;99.90;;;;;;4872474;29;21037;-81
2022/12/13 10:56:49;;;;;;;24.83;22.23;;;-2.60;99.90;;;;;;4877389;29;20446;-81
2022/12/13 10:59:30;;;;;;;27.00;23.27;;;-2.40;99.90;;;;;;4874609;29;20524;-82
2022/12/13 11:01:57;;;;;;;31.30;24.03;;;-2.30;99.90;;;;;;4876790;29;20452;-81
2022/12/13 11:04:28;;;;;;;28.40;23.77;;;-2.30;99.90;;;;;;4872072;29;21191;-82
2022/12/13 11:06:56;;;;;;;27.97;24.30;;;-2.20;99.90;;;;;;4874561;29;20458;-81
2022/12/13 11:09:29;;;;;;;27.47;24.27;;;-2.20;99.90;;;;;;4876799;29;20450;-81
2022/12/13 11:12:00;;;;;;;28.87;24.30;;;-2.10;99.90;;;;;;4880997;29;20450;-83
2022/12/13 11:14:31;;;;;;;27.43;23.37;;;-2.00;99.90;;;;;;4882051;29;20480;-83
2022/12/13 11:16:59;;;;;;;26.83;23.93;;;-1.90;99.90;;;;;;4879845;29;20458;-83
2022/12/13 11:19:33;;;;;;;26.87;22.83;;;-1.80;99.90;;;;;;4880690;29;20462;-82
2022/12/13 11:22:00;;;;;;;28.97;23.00;;;-1.60;99.90;;;;;;4881351;29;21232;-82
2022/12/13 11:24:31;;;;;;;26.53;22.73;;;-1.60;99.90;;;;;;4877118;29;20482;-82
2022/12/13 11:27:02;;;;;;;25.20;22.47;;;-1.60;99.90;;;;;;4881685;29;20454;-82
2022/12/13 11:29:50;;;;;;;25.97;22.87;;;-1.50;99.90;;;;;;4874730;29;20451;-82
2022/12/13 11:32:24;;;;;;;26.63;22.70;;;-1.50;99.90;;;;;;4876250;29;20462;-82
2022/12/13 11:34:56;;;;;;;23.57;20.97;;;-1.40;99.90;;;;;;4882525;29;20927;-82
2022/12/13 11:37:29;;;;;;;24.43;21.80;;;-1.40;99.90;;;;;;4874513;29;20438;-82
2022/12/13 11:40:00;;;;;;;26.77;23.00;;;-1.30;99.90;;;;;;4878047;29;21022;-82
2022/12/13 11:42:32;;;;;;;25.17;22.40;;;-1.20;99.90;;;;;;4880216;29;20446;-82
2022/12/13 11:45:03;;;;;;;26.17;22.63;;;-1.10;99.90;;;;;;4874851;29;20474;-82
2022/12/13 11:47:37;;;;;;;24.23;21.53;;;-1.10;99.90;;;;;;4870392;29;20470;-82
2022/12/13 11:50:14;;;;;;;24.63;21.93;;;-1.10;99.90;;;;;;4878146;29;20448;-80
2022/12/13 11:52:47;;;;;;;26.73;22.17;;;-1.20;99.90;;;;;;4874664;29;20458;-82
2022/12/13 11:55:18;;;;;;;24.27;21.20;;;-1.10;99.90;;;;;;4875685;29;20486;-81
2022/12/13 11:57:51;;;;;;;23.53;21.07;;;-1.10;99.90;;;;;;4876540;29;20453;-83
2022/12/13 12:00:28;;;;;;;23.70;21.40;;;-0.90;99.90;;;;;;4870284;29;20643;-82
2022/12/13 12:03:00;;;;;;;24.17;21.57;;;-0.80;99.90;;;;;;4875826;29;20458;-82
2022/12/13 12:05:31;;;;;;;23.27;20.73;;;-0.80;99.90;;;;;;4878039;29;20462;-82
2022/12/13 12:08:01;;;;;;;22.20;19.90;;;-0.80;99.90;;;;;;4877727;29;20469;-82
2022/12/13 12:10:35;;;;;;;24.70;20.87;;;-0.70;99.90;;;;;;4869036;29;20546;-82
2022/12/13 12:13:10;;;;;;;23.33;20.40;;;-0.50;99.90;;;;;;4878233;29;20997;-82
2022/12/13 12:15:42;;;;;;;21.97;19.50;;;-0.50;99.90;;;;;;4874917;29;20486;-82
2022/12/13 12:18:15;;;;;;;23.23;20.20;;;-0.40;99.90;;;;;;4877928;29;20439;-83
2022/12/13 12:20:53;;;;;;;22.87;20.40;;;-0.40;99.90;;;;;;4878379;29;20522;-83
2022/12/13 12:23:32;;;;;;;25.43;22.07;;;-0.40;99.90;;;;;;4875795;29;20453;-83
2022/12/13 12:26:06;;;;;;;21.93;19.77;;;-0.40;99.90;;;;;;4877963;29;21078;-82
2022/12/13 12:28:46;;;;;;;21.10;18.87;;;-0.40;99.90;;;;;;4873981;29;20498;-82
2022/12/13 12:31:22;;;;;;;22.03;19.70;;;-0.40;99.90;;;;;;4876811;29;20458;-81
2022/12/13 12:33:56;;;;;;;20.17;18.13;;;-0.30;99.90;;;;;;4879915;29;21008;-82
2022/12/13 12:36:41;;;;;;;20.93;18.73;;;-0.30;99.90;;;;;;4875670;29;20487;-82
2022/12/13 12:39:34;;;;;;;20.53;18.53;;;-0.20;99.90;;;;;;4872363;29;20460;-82
2022/12/13 12:42:21;;;;;;;20.17;18.13;;;-0.20;99.90;;;;;;4876258;29;20468;-82
2022/12/13 12:45:04;;;;;;;19.20;17.37;;;-0.20;99.90;;;;;;4866595;29;20995;-82
2022/12/13 12:47:44;;;;;;;19.47;17.57;;;-0.20;99.90;;;;;;4872173;29;20550;-82
2022/12/13 12:50:28;;;;;;;19.23;17.33;;;-0.20;99.90;;;;;;4872907;29;20462;-82
2022/12/13 12:53:06;;;;;;;18.40;16.60;;;-0.20;99.90;;;;;;4875748;29;20537;-82
2022/12/13 12:55:47;;;;;;;19.43;17.53;;;-0.10;99.90;;;;;;4869907;29;20527;-81
2022/12/13 12:58:23;;;;;;;19.73;17.80;;;-0.10;99.90;;;;;;4871294;29;20451;-81
2022/12/13 13:01:13;;;;;;;19.23;17.40;;;-0.10;99.90;;;;;;4874844;29;20535;-82
2022/12/13 13:03:42;;;;;;;18.37;16.47;;;-0.10;99.90;;;;;;4870862;29;20453;-83
2022/12/13 13:06:13;;;;;;;19.10;17.20;;;0.00;99.90;;;;;;4872453;29;20437;-82
2022/12/13 13:08:45;;;;;;;18.67;16.67;;;0.00;99.90;;;;;;4878602;29;20455;-82
2022/12/13 13:11:13;;;;;;;18.50;16.60;;;-0.10;99.90;;;;;;4877186;29;20462;-83
2022/12/13 13:13:46;;;;;;;19.10;17.30;;;0.00;99.90;;;;;;4871551;29;20988;-81
2022/12/13 13:16:39;;;;;;;18.33;16.47;;;-0.10;99.90;;;;;;4876968;29;20482;-83
2022/12/13 13:19:29;;;;;;;16.70;15.30;;;-0.10;99.90;;;;;;4868626;29;20470;-80
2022/12/13 13:21:57;;;;;;;17.63;15.80;;;-0.10;99.90;;;;;;4878679;29;20454;-79
2022/12/13 13:24:26;;;;;;;17.83;16.13;;;-0.10;99.90;;;;;;4872567;29;21042;-79
2022/12/13 13:26:55;;;;;;;17.67;15.87;;;-0.10;99.90;;;;;;4875092;29;20458;-81
2022/12/13 13:29:37;;;;;;;17.77;15.93;;;-0.20;99.90;;;;;;4873227;29;20476;-81
2022/12/13 13:32:25;;;;;;;17.43;15.83;;;-0.20;99.90;;;;;;4875886;29;20454;-82
2022/12/13 13:34:53;;;;;;;16.43;15.13;;;-0.20;99.90;;;;;;4876778;29;20992;-81
2022/12/13 13:37:28;;;;;;;17.43;15.93;;;-0.20;99.90;;;;;;4880179;29;20506;-79
2022/12/13 13:40:00;;;;;;;16.63;15.17;;;-0.20;99.90;;;;;;4881811;29;20494;-79
2022/12/13 13:42:28;;;;;;;16.80;15.30;;;-0.20;99.90;;;;;;4880619;29;20909;-80
2022/12/13 13:45:15;;;;;;;17.37;15.87;;;-0.10;99.90;;;;;;4874803;29;20470;-80
2022/12/13 13:47:58;;;;;;;17.40;15.73;;;-0.10;99.90;;;;;;4879104;29;20446;-81
2022/12/13 13:51:10;;;;;;;17.63;15.93;;;-0.10;99.90;;;;;;4875821;29;20443;-80
2022/12/13 13:54:11;;;;;;;16.63;15.03;;;-0.10;99.90;;;;;;4872668;29;20443;-81
2022/12/13 13:57:27;;;;;;;17.40;15.70;;;-0.10;99.90;;;;;;5126700;27;21242;-80
2022/12/13 14:00:17;;;;;;;17.40;15.80;;;-0.10;99.90;;;;;;5124432;28;20442;-79
2022/12/13 14:03:36;;;;;;;17.63;15.97;;;-0.10;99.90;;;;;;5120669;28;20443;-79
2022/12/13 14:06:41;;;;;;;17.00;15.50;;;-0.10;99.90;;;;;;5098798;28;20500;-78
2022/12/13 14:09:46;;;;;;;18.07;15.40;;;-0.10;99.90;;;;;;5104103;28;20447;-79
2022/12/13 14:12:44;;;;;;;17.67;15.87;;;-0.10;99.90;;;;;;5097473;28;20531;-78
2022/12/13 14:15:46;;;;;;;17.73;16.10;;;-0.10;99.90;;;;;;5104245;28;20470;-78
2022/12/13 14:18:58;;;;;;;20.03;16.53;;;-0.10;99.90;;;;;;5110744;28;20471;-77
2022/12/13 14:21:33;;;;;;;18.30;16.60;;;-0.10;99.90;;;;;;5104770;28;20475;-79
2022/12/13 14:24:12;;;;;;;18.73;15.43;;;-0.10;99.90;;;;;;5103414;28;20526;-77
2022/12/13 14:26:51;;;;;;;18.20;16.60;;;-0.10;99.90;;;;;;5099283;28;20459;-78
2022/12/13 14:29:24;;;;;;;18.03;16.23;;;-0.10;99.90;;;;;;5102985;28;20498;-79
2022/12/13 14:31:51;;;;;;;18.43;16.53;;;-0.20;99.90;;;;;;5101319;28;20447;-78
2022/12/13 14:34:22;;;;;;;18.87;17.07;;;-0.20;99.90;;;;;;5104227;28;21055;-78
2022/12/13 14:36:57;;;;;;;18.47;16.67;;;-0.20;99.90;;;;;;5103660;28;20479;-79
2022/12/13 14:39:25;;;;;;;17.40;15.70;;;-0.30;99.90;;;;;;5106654;28;21012;-78
2022/12/13 14:41:54;;;;;;;16.70;15.20;;;-0.30;99.90;;;;;;5097688;28;20877;-79
2022/12/13 14:44:25;;;;;;;19.33;17.33;;;-0.30;99.90;;;;;;5106161;28;20452;-79
2022/12/13 14:46:54;;;;;;;18.37;16.40;;;-0.40;99.90;;;;;;5097049;28;20453;-80
2022/12/13 14:49:26;;;;;;;18.23;16.30;;;-0.50;99.90;;;;;;5106743;28;20482;-79
2022/12/13 14:52:00;;;;;;;18.20;16.50;;;-0.50;99.90;;;;;;5102812;28;20470;-81
2022/12/13 14:54:31;;;;;;;18.13;16.43;;;-0.60;99.90;;;;;;5108912;28;20482;-85
2022/12/13 14:56:59;;;;;;;18.03;16.37;;;-0.60;99.90;;;;;;5109710;28;20447;-80
2022/12/13 14:59:28;;;;;;;18.57;16.57;;;-0.70;99.90;;;;;;5103490;28;20451;-83
2022/12/13 15:01:58;;;;;;;18.77;16.97;;;-0.70;99.90;;;;;;5105982;28;20498;-80
2022/12/13 15:04:29;;;;;;;25.07;17.07;;;-0.80;99.90;;;;;;5109268;28;20455;-82
2022/12/13 15:07:01;;;;;;;18.93;16.93;;;-0.80;99.90;;;;;;5094667;28;20456;-80
2022/12/13 15:09:28;;;;;;;19.03;17.33;;;-0.90;99.90;;;;;;5082720;28;20836;-79
2022/12/13 15:11:56;;;;;;;19.27;17.20;;;-0.90;99.90;;;;;;5084762;28;20440;-79
2022/12/13 15:14:24;;;;;;;18.27;16.57;;;-1.00;99.90;;;;;;5093192;28;20979;-79
2022/12/13 15:16:54;;;;;;;18.03;16.30;;;-1.00;99.90;;;;;;5089066;28;20479;-81
2022/12/13 15:19:28;;;;;;;19.17;17.27;;;-1.10;99.90;;;;;;5086960;28;20610;-81
2022/12/13 15:21:59;;;;;;;18.50;16.70;;;-1.10;99.90;;;;;;5091945;28;20452;-80
2022/12/13 15:24:32;;;;;;;17.80;16.00;;;-1.20;99.90;;;;;;5085718;28;20467;-79
2022/12/13 15:27:03;;;;;;;17.63;15.83;;;-1.20;99.90;;;;;;5086709;28;20440;-79
2022/12/13 15:29:32;;;;;;;18.30;15.93;;;-1.20;99.90;;;;;;5090574;28;20455;-80
2022/12/13 15:32:02;;;;;;;18.10;16.33;;;-1.20;99.90;;;;;;5086892;28;20433;-79
2022/12/13 15:34:35;;;;;;;17.90;16.10;;;-1.20;99.90;;;;;;5096747;28;20465;-79
2022/12/13 15:37:05;;;;;;;17.50;15.80;;;-1.20;99.90;;;;;;5093669;28;20824;-79
2022/12/13 15:39:37;;;;;;;17.97;16.13;;;-1.20;99.90;;;;;;5084564;28;20462;-81
2022/12/13 15:42:04;;;;;;;17.23;15.60;;;-1.30;99.90;;;;;;5092703;28;20437;-79
2022/12/13 15:44:44;;;;;;;17.27;15.73;;;-1.30;99.90;;;;;;5091085;28;20448;-80
2022/12/13 15:47:15;;;;;;;18.17;16.33;;;-1.30;99.90;;;;;;5091948;28;21101;-81
2022/12/13 15:49:49;;;;;;;17.40;15.63;;;-1.30;99.90;;;;;;5089355;28;20821;-80
2022/12/13 15:52:32;;;;;;;17.20;15.70;;;-1.30;99.90;;;;;;5090757;28;20445;-81
2022/12/13 15:55:01;;;;;;;21.53;16.73;;;-1.40;99.90;;;;;;5088623;28;20500;-81
2022/12/13 15:57:30;;;;;;;18.07;16.37;;;-1.40;99.90;;;;;;5113066;27;20656;-81
2022/12/13 16:00:20;;;;;;;18.23;16.43;;;-1.30;99.90;;;;;;5096001;28;20424;-83